createdAt,value
2022-12-14T00:00:14.841Z,716
2022-12-14T00:01:17.054Z,716.3
2022-12-14T00:02:19.249Z,717
2022-12-14T00:03:22.498Z,717.1
2022-12-14T00:04:25.059Z,716.7
2022-12-14T00:05:27.542Z,717.2
2022-12-14T00:06:29.497Z,718
2022-12-14T00:07:31.996Z,718.9
2022-12-14T00:09:39.193Z,719.6
2022-12-14T00:10:41.394Z,719.7
2022-12-14T00:11:43.881Z,719.8
2022-12-14T00:12:46.117Z,719.6
2022-12-14T00:14:53.638Z,718.8
2022-12-14T00:15:56.330Z,718.3
2022-12-14T00:16:58.827Z,717.5
2022-12-14T00:18:01.320Z,717.3
2022-12-14T00:19:03.818Z,716.5
2022-12-14T00:20:06.011Z,716.5
2022-12-14T00:21:08.217Z,716
2022-12-14T00:22:10.698Z,716.1
2022-12-14T00:23:13.175Z,715.8
2022-12-14T00:24:15.497Z,715.7
2022-12-14T00:25:17.716Z,715.7
2022-12-14T00:26:19.943Z,715.2
2022-12-14T00:27:21.883Z,715.1
2022-12-14T00:28:25.507Z,714.8
2022-12-14T00:29:27.866Z,714.3
2022-12-14T00:30:30.117Z,713.7
2022-12-14T00:31:33.031Z,713.7
2022-12-14T00:32:35.548Z,713.8
2022-12-14T00:33:37.732Z,714.2
2022-12-14T00:34:39.929Z,714.6
2022-12-14T00:35:42.423Z,714.9
2022-12-14T00:36:44.896Z,715.1
2022-12-14T00:38:52.089Z,716.2
2022-12-14T00:39:54.294Z,716.6
2022-12-14T00:40:56.821Z,716.9
2022-12-14T00:41:59.305Z,717.2
2022-12-14T00:43:01.776Z,717.7
2022-12-14T00:44:03.747Z,717.8
2022-12-14T00:45:05.427Z,717.2
2022-12-14T00:46:08.266Z,717
2022-12-14T00:47:10.844Z,716.5
2022-12-14T00:48:13.345Z,716.2
2022-12-14T00:49:15.816Z,716.6
2022-12-14T00:50:18.021Z,717.6
2022-12-14T00:51:20.216Z,718.3
2022-12-14T00:52:21.851Z,718.1
2022-12-14T00:53:24.618Z,717.6
2022-12-14T00:54:26.836Z,717.1
2022-12-14T00:55:29.321Z,717
2022-12-14T00:56:31.841Z,716.7
2022-12-14T00:57:34.326Z,717.1
2022-12-14T00:58:36.795Z,717.4
2022-12-14T00:59:39.295Z,717.1
2022-12-14T01:00:41.498Z,716.9
2022-12-14T01:01:44.842Z,716.5
2022-12-14T01:02:51.209Z,716.6
2022-12-14T01:03:54.019Z,716.5
2022-12-14T01:04:55.969Z,716.2
2022-12-14T01:05:58.197Z,715.1
2022-12-14T01:07:00.683Z,714.2
2022-12-14T01:08:02.623Z,714.5
2022-12-14T01:09:04.878Z,714.4
2022-12-14T01:10:07.359Z,714.2
2022-12-14T01:11:09.582Z,715
2022-12-14T01:12:12.087Z,714.4
2022-12-14T01:13:14.290Z,714.1
2022-12-14T01:14:16.773Z,714.2
2022-12-14T01:15:19.260Z,714.8
2022-12-14T01:16:22.061Z,715.2
2022-12-14T01:17:24.377Z,715.1
2022-12-14T01:18:26.863Z,715.8
2022-12-14T01:19:29.340Z,716.3
2022-12-14T01:20:31.833Z,716.5
2022-12-14T01:21:33.736Z,717.1
2022-12-14T01:22:36.258Z,717
2022-12-14T01:23:38.737Z,716.9
2022-12-14T01:24:40.946Z,717.1
2022-12-14T01:25:43.151Z,717.7
2022-12-14T01:26:45.629Z,717.9
2022-12-14T01:27:47.843Z,717.2
2022-12-14T01:28:49.758Z,716.9
2022-12-14T01:29:51.688Z,717.3
2022-12-14T01:30:54.214Z,717.3
2022-12-14T01:31:56.168Z,717.7
2022-12-14T01:32:58.710Z,717.6
2022-12-14T01:34:01.197Z,717.9
2022-12-14T01:35:03.119Z,717.8
2022-12-14T01:36:05.025Z,717.5
2022-12-14T01:37:07.227Z,717.5
2022-12-14T01:38:09.422Z,718
2022-12-14T01:39:11.624Z,717.9
2022-12-14T01:40:13.822Z,718
2022-12-14T01:41:16.313Z,717.2
2022-12-14T01:42:17.965Z,716.7
2022-12-14T01:43:20.465Z,717
2022-12-14T01:44:22.949Z,716.5
2022-12-14T01:45:25.462Z,716.8
2022-12-14T01:46:28.146Z,716.6
2022-12-14T01:47:30.387Z,716.5
2022-12-14T01:48:32.939Z,716.9
2022-12-14T01:49:35.425Z,717
2022-12-14T01:50:37.901Z,717.1
2022-12-14T01:51:40.377Z,717.7
2022-12-14T01:52:42.868Z,717.4
2022-12-14T01:53:45.347Z,717.7
2022-12-14T01:55:52.250Z,716.6
2022-12-14T01:56:54.733Z,716.9
2022-12-14T01:57:56.928Z,717.2
2022-12-14T01:58:59.439Z,717.4
2022-12-14T02:01:06.888Z,716
2022-12-14T02:02:10.018Z,716.2
2022-12-14T02:03:12.873Z,716.4
2022-12-14T02:04:14.981Z,716.4
2022-12-14T02:05:17.477Z,716.5
2022-12-14T02:06:19.683Z,716.7
2022-12-14T02:07:21.925Z,716.7
2022-12-14T02:08:24.401Z,717
2022-12-14T02:09:26.885Z,717.5
2022-12-14T02:10:29.091Z,718.4
2022-12-14T02:11:31.294Z,719
2022-12-14T02:12:33.809Z,719.4
2022-12-14T02:13:35.725Z,719.1
2022-12-14T02:14:37.967Z,718.9
2022-12-14T02:15:40.188Z,718.9
2022-12-14T02:16:42.806Z,718.8
2022-12-14T02:17:45.051Z,718.8
2022-12-14T02:18:47.251Z,719.2
2022-12-14T02:19:49.788Z,719
2022-12-14T02:20:52.253Z,719.1
2022-12-14T02:21:54.449Z,719.3
2022-12-14T02:22:56.933Z,719.4
2022-12-14T02:23:59.417Z,719.6
2022-12-14T02:25:01.898Z,719.2
2022-12-14T02:26:04.385Z,719.1
2022-12-14T02:27:06.879Z,719.3
2022-12-14T02:28:09.356Z,719.5
2022-12-14T02:29:11.835Z,719.5
2022-12-14T02:30:14.345Z,720.3
2022-12-14T02:31:16.888Z,720.3
2022-12-14T02:32:18.845Z,720.5
2022-12-14T02:33:21.365Z,720.9
2022-12-14T02:34:23.351Z,720.5
2022-12-14T02:35:25.902Z,720.3
2022-12-14T02:36:28.100Z,720.4
2022-12-14T02:37:30.312Z,720.3
2022-12-14T02:38:32.798Z,720.2
2022-12-14T02:39:35.278Z,720.8
2022-12-14T02:40:37.486Z,721.6
2022-12-14T02:41:40.092Z,721.5
2022-12-14T02:42:42.013Z,721.5
2022-12-14T02:44:50.739Z,721
2022-12-14T02:45:53.399Z,721.3
2022-12-14T02:46:56.168Z,721.5
2022-12-14T02:47:58.115Z,721.8
2022-12-14T02:49:00.310Z,721.5
2022-12-14T02:50:02.514Z,721.8
2022-12-14T02:51:05.258Z,721.7
2022-12-14T02:52:07.498Z,721.5
2022-12-14T02:53:09.418Z,721.2
2022-12-14T02:54:11.906Z,721.8
2022-12-14T02:55:14.117Z,721.9
2022-12-14T02:56:16.602Z,722.2
2022-12-14T02:57:18.777Z,722.3
2022-12-14T02:58:20.995Z,722.5
2022-12-14T02:59:23.433Z,722.6
2022-12-14T03:00:25.927Z,722.5
2022-12-14T03:01:29.212Z,722.5
2022-12-14T03:02:32.086Z,722.4
2022-12-14T03:03:34.808Z,722.1
2022-12-14T03:04:37.616Z,721.6
2022-12-14T03:05:40.118Z,721.6
2022-12-14T03:06:42.505Z,722.1
2022-12-14T03:08:50.925Z,723.1
2022-12-14T03:09:53.125Z,723.6
2022-12-14T03:10:55.600Z,724.3
2022-12-14T03:11:57.842Z,725.1
2022-12-14T03:13:00.315Z,725.4
2022-12-14T03:14:02.528Z,725.1
2022-12-14T03:15:04.709Z,725
2022-12-14T03:16:07.443Z,725.2
2022-12-14T03:17:09.992Z,725.5
2022-12-14T03:18:12.491Z,725.1
2022-12-14T03:19:14.966Z,725
2022-12-14T03:20:17.214Z,724.2
2022-12-14T03:21:19.678Z,724.4
2022-12-14T03:22:22.225Z,724.3
2022-12-14T03:23:25.792Z,724.3
2022-12-14T03:24:28.231Z,724
2022-12-14T03:25:30.429Z,724.2
2022-12-14T03:26:32.905Z,724.7
2022-12-14T03:27:34.836Z,725
2022-12-14T03:28:51.700Z,725.1
2022-12-14T03:29:54.181Z,725.6
2022-12-14T03:32:01.658Z,725.6
2022-12-14T03:33:03.626Z,725.3
2022-12-14T03:35:12.284Z,725.6
2022-12-14T03:36:14.793Z,725.9
2022-12-14T03:37:16.729Z,725.9
2022-12-14T03:38:19.271Z,725.6
2022-12-14T03:39:21.478Z,725.4
2022-12-14T03:40:23.693Z,725.1
2022-12-14T03:41:26.172Z,725.1
2022-12-14T03:42:28.656Z,724.7
2022-12-14T03:43:32.038Z,724.7
2022-12-14T03:44:34.524Z,724.5
2022-12-14T03:45:37.070Z,724.1
2022-12-14T03:46:39.718Z,724.2
2022-12-14T03:47:42.249Z,724.6
2022-12-14T03:48:44.537Z,724.9
2022-12-14T03:50:51.716Z,725.1
2022-12-14T03:51:54.228Z,725.2
2022-12-14T03:52:56.716Z,725.5
2022-12-14T03:53:59.348Z,725.6
2022-12-14T03:55:01.561Z,725.5
2022-12-14T03:56:03.775Z,725.3
2022-12-14T03:57:06.253Z,725.3
2022-12-14T03:58:08.461Z,725.2
2022-12-14T03:59:10.941Z,724.6
2022-12-14T04:00:13.149Z,724.5
2022-12-14T04:01:15.780Z,723.9
2022-12-14T04:02:19.073Z,723.5
2022-12-14T04:03:21.744Z,723.6
2022-12-14T04:04:24.003Z,723.2
2022-12-14T04:05:26.206Z,723.1
2022-12-14T04:06:28.427Z,723.1
2022-12-14T04:07:30.369Z,723.1
2022-12-14T04:08:32.878Z,723
2022-12-14T04:09:35.438Z,723.5
2022-12-14T04:10:37.865Z,723.9
2022-12-14T04:11:40.215Z,723.9
2022-12-14T04:14:52.876Z,725.5
2022-12-14T04:15:55.352Z,726.2
2022-12-14T04:16:58.014Z,726.3
2022-12-14T04:18:00.492Z,726.3
2022-12-14T04:19:02.761Z,726.6
2022-12-14T04:20:05.273Z,726.4
2022-12-14T04:21:07.475Z,726.6
2022-12-14T04:22:09.952Z,726.6
2022-12-14T04:23:11.891Z,727.3
2022-12-14T04:24:14.379Z,727.5
2022-12-14T04:25:16.640Z,727.9
2022-12-14T04:26:19.110Z,728.7
2022-12-14T04:27:21.300Z,728.6
2022-12-14T04:28:23.788Z,728.8
2022-12-14T04:29:26.262Z,728.4
2022-12-14T04:30:28.193Z,729
2022-12-14T04:31:30.940Z,729.1
2022-12-14T04:32:33.719Z,729.2
2022-12-14T04:33:35.938Z,729.7
2022-12-14T04:34:38.140Z,729.9
2022-12-14T04:35:40.363Z,729.7
2022-12-14T04:36:42.832Z,730.3
2022-12-14T04:38:51.553Z,730.4
2022-12-14T04:39:54.170Z,730.6
2022-12-14T04:40:56.471Z,730.7
2022-12-14T04:41:58.954Z,730.7
2022-12-14T04:43:01.475Z,730.9
2022-12-14T04:44:03.979Z,730.5
2022-12-14T04:45:06.502Z,730.6
2022-12-14T04:46:09.434Z,730.7
2022-12-14T04:47:12.004Z,731.1
2022-12-14T04:48:13.943Z,731.2
2022-12-14T04:49:16.131Z,731
2022-12-14T04:50:18.638Z,731.4
2022-12-14T04:51:21.239Z,732.1
2022-12-14T04:52:23.721Z,732.1
2022-12-14T04:53:28.098Z,732.1
2022-12-14T04:54:30.776Z,731.9
2022-12-14T04:55:32.983Z,731.6
2022-12-14T04:56:35.540Z,731.7
2022-12-14T04:57:37.453Z,731.6
2022-12-14T04:58:39.928Z,731.3
2022-12-14T04:59:42.405Z,731.4
2022-12-14T05:00:44.789Z,731.7
2022-12-14T05:02:52.696Z,731.2
2022-12-14T05:03:54.920Z,730.6
2022-12-14T05:04:56.962Z,730.2
2022-12-14T05:05:59.195Z,730.6
2022-12-14T05:07:01.700Z,730.6
2022-12-14T05:08:04.192Z,729.7
2022-12-14T05:09:06.381Z,730
2022-12-14T05:10:08.617Z,730.4
2022-12-14T05:12:15.863Z,731
2022-12-14T05:13:18.077Z,731.1
2022-12-14T05:14:20.550Z,731.1
2022-12-14T05:15:23.037Z,730.7
2022-12-14T05:16:25.698Z,730.9
2022-12-14T05:17:28.219Z,730.6
2022-12-14T05:18:30.695Z,730.5
2022-12-14T05:19:32.623Z,730.5
2022-12-14T05:20:34.810Z,730.6
2022-12-14T05:21:37.014Z,730.6
2022-12-14T05:22:39.237Z,731.2
2022-12-14T05:23:41.455Z,730.8
2022-12-14T05:24:43.644Z,731.2
2022-12-14T05:26:51.333Z,731.3
2022-12-14T05:27:53.314Z,731.1
2022-12-14T05:28:55.232Z,731.4
2022-12-14T05:29:57.414Z,731.4
2022-12-14T05:30:59.837Z,731.4
2022-12-14T05:32:01.810Z,731.4
2022-12-14T05:33:03.734Z,731.8
2022-12-14T05:34:06.258Z,731.6
2022-12-14T05:35:08.456Z,732.5
2022-12-14T05:36:10.943Z,732.9
2022-12-14T05:38:17.848Z,733.5
2022-12-14T05:39:20.089Z,733
2022-12-14T05:40:22.569Z,733.1
2022-12-14T05:41:25.050Z,733
2022-12-14T05:42:27.536Z,732.7
2022-12-14T05:43:32.016Z,733.2
2022-12-14T05:44:34.494Z,732.7
2022-12-14T05:45:37.212Z,733.4
2022-12-14T05:46:39.695Z,733.6
2022-12-14T05:47:41.901Z,733.9
2022-12-14T05:50:54.052Z,733.6
2022-12-14T05:51:55.705Z,733.5
2022-12-14T05:52:58.191Z,734
2022-12-14T05:54:00.407Z,733.9
2022-12-14T05:56:07.876Z,734.1
2022-12-14T05:57:10.358Z,734.4
2022-12-14T05:58:12.862Z,734.4
2022-12-14T05:59:14.857Z,734.8
2022-12-14T06:00:17.341Z,735.2
2022-12-14T06:01:22.185Z,735.6
2022-12-14T06:02:25.531Z,735.8
2022-12-14T06:03:30.391Z,736
2022-12-14T06:04:33.265Z,736.1
2022-12-14T06:05:35.810Z,736.2
2022-12-14T06:06:38.131Z,736.1
2022-12-14T06:07:40.327Z,736.6
2022-12-14T06:08:42.241Z,737.2
2022-12-14T06:09:44.472Z,736.9
2022-12-14T06:10:46.949Z,736.4
2022-12-14T06:11:48.883Z,736.3
2022-12-14T06:12:51.105Z,736
2022-12-14T06:13:53.635Z,735.7
2022-12-14T06:14:56.283Z,735.9
2022-12-14T06:15:58.786Z,735.4
2022-12-14T06:17:01.067Z,735.2
2022-12-14T06:18:03.044Z,735.2
2022-12-14T06:19:05.327Z,735.2
2022-12-14T06:20:07.530Z,735.7
2022-12-14T06:21:10.012Z,735.4
2022-12-14T06:22:12.493Z,735.3
2022-12-14T06:23:14.429Z,736
2022-12-14T06:24:16.938Z,735.4
2022-12-14T06:25:19.446Z,735.7
2022-12-14T06:26:21.938Z,736.1
2022-12-14T06:27:23.872Z,736
2022-12-14T06:28:26.085Z,736.7
2022-12-14T06:29:28.303Z,736.6
2022-12-14T06:30:30.578Z,736.8
2022-12-14T06:31:33.518Z,737.1
2022-12-14T06:32:36.061Z,737.2
2022-12-14T06:33:38.264Z,737
2022-12-14T06:35:45.452Z,736.6
2022-12-14T06:36:47.877Z,736.8
2022-12-14T06:37:50.790Z,737
2022-12-14T06:38:53.417Z,736.7
2022-12-14T06:39:56.667Z,737.5
2022-12-14T06:40:58.898Z,737.6
2022-12-14T06:42:01.153Z,737.5
2022-12-14T06:43:03.380Z,737.6
2022-12-14T06:44:05.873Z,738
2022-12-14T06:45:08.404Z,738.1
2022-12-14T06:47:16.015Z,738.5
2022-12-14T06:48:18.491Z,738.3
2022-12-14T06:49:20.991Z,738.6
2022-12-14T06:50:23.210Z,738.6
2022-12-14T06:51:25.396Z,739.2
2022-12-14T06:52:28.673Z,738.9
2022-12-14T06:53:32.348Z,738.9
2022-12-14T06:54:34.327Z,739.2
2022-12-14T06:55:36.253Z,739.2
2022-12-14T06:56:38.474Z,738.7
2022-12-14T06:57:40.672Z,738.6
2022-12-14T06:58:42.883Z,738.8
2022-12-14T06:59:45.095Z,739
2022-12-14T07:00:47.330Z,740.1
2022-12-14T07:02:56.037Z,739.6
2022-12-14T07:03:58.358Z,739.1
2022-12-14T07:05:00.304Z,739.1
2022-12-14T07:06:02.789Z,739.3
2022-12-14T07:07:05.268Z,739.1
2022-12-14T07:08:07.516Z,739.1
2022-12-14T07:09:09.727Z,740
2022-12-14T07:10:12.243Z,739.7
2022-12-14T07:11:14.453Z,740.6
2022-12-14T07:12:16.997Z,740.4
2022-12-14T07:13:19.491Z,740.9
2022-12-14T07:14:21.699Z,741.5
2022-12-14T07:15:23.885Z,741.7
2022-12-14T07:16:26.410Z,741.6
2022-12-14T07:17:28.625Z,741.2
2022-12-14T07:18:31.167Z,741.5
2022-12-14T07:19:33.657Z,741
2022-12-14T07:20:35.866Z,740.9
2022-12-14T07:21:37.810Z,740.9
2022-12-14T07:22:40.296Z,740.4
2022-12-14T07:23:42.481Z,740.6
2022-12-14T07:24:44.683Z,741
2022-12-14T07:26:52.136Z,740.4
2022-12-14T07:27:54.076Z,740.8
2022-12-14T07:28:56.325Z,741
2022-12-14T07:29:58.806Z,741.1
2022-12-14T07:31:01.468Z,741.3
2022-12-14T07:32:03.713Z,741.3
2022-12-14T07:33:06.069Z,741.1
2022-12-14T07:34:08.361Z,742
2022-12-14T07:36:15.876Z,741.9
2022-12-14T07:37:18.383Z,742.1
2022-12-14T07:38:20.591Z,742.5
2022-12-14T07:39:22.795Z,742.2
2022-12-14T07:40:25.269Z,742.5
2022-12-14T07:41:27.761Z,742.9
2022-12-14T07:42:29.944Z,742.8
2022-12-14T07:43:32.690Z,742.8
2022-12-14T07:44:35.176Z,742.5
2022-12-14T07:45:37.685Z,742.5
2022-12-14T07:46:40.595Z,742.6
2022-12-14T07:47:42.847Z,742.7
2022-12-14T07:48:45.058Z,742.3
2022-12-14T07:50:52.289Z,742.2
2022-12-14T07:51:54.777Z,742.2
2022-12-14T07:52:57.266Z,742.5
2022-12-14T07:53:59.754Z,742.4
2022-12-14T07:55:02.249Z,742.6
2022-12-14T07:56:05.171Z,742.8
2022-12-14T07:57:07.429Z,742.8
2022-12-14T07:58:09.649Z,742.8
2022-12-14T07:59:12.188Z,742.7
2022-12-14T08:00:14.387Z,742.7
2022-12-14T08:01:16.937Z,742.5
2022-12-14T08:02:20.187Z,742.7
2022-12-14T08:03:22.449Z,742.5
2022-12-14T08:04:25.071Z,742.6
2022-12-14T08:05:27.326Z,742.9
2022-12-14T08:06:29.853Z,743.1
2022-12-14T08:07:32.339Z,743.6
2022-12-14T08:08:34.848Z,743.8
2022-12-14T08:09:37.328Z,743.8
2022-12-14T08:11:44.784Z,743.9
2022-12-14T08:12:47.003Z,744
2022-12-14T08:13:49.566Z,744
2022-12-14T08:14:51.976Z,744.4
2022-12-14T08:15:54.463Z,744.3
2022-12-14T08:16:56.440Z,744.4
2022-12-14T08:17:58.939Z,744.7
2022-12-14T08:19:01.166Z,744.4
2022-12-14T08:20:03.415Z,744.3
2022-12-14T08:21:05.678Z,744.5
2022-12-14T08:22:08.254Z,745.1
2022-12-14T08:23:10.767Z,745.1
2022-12-14T08:24:13.343Z,745.5
2022-12-14T08:25:16.833Z,746.1
2022-12-14T08:26:19.371Z,746.9
2022-12-14T08:27:21.350Z,746.6
2022-12-14T08:28:23.616Z,747
2022-12-14T08:29:25.558Z,746.3
2022-12-14T08:30:28.091Z,746
2022-12-14T08:31:31.393Z,746.3
2022-12-14T08:33:38.648Z,746.8
2022-12-14T08:34:40.905Z,747.2
2022-12-14T08:35:43.530Z,746.7
2022-12-14T08:36:45.199Z,746.3
2022-12-14T08:37:49.764Z,746.6
2022-12-14T08:38:52.256Z,746.1
2022-12-14T08:39:55.932Z,746.7
2022-12-14T08:40:58.455Z,746.7
2022-12-14T08:42:00.669Z,747.2
2022-12-14T08:43:02.885Z,746.9
2022-12-14T08:44:05.148Z,746.5
2022-12-14T08:45:07.373Z,746.2
2022-12-14T08:46:09.228Z,746.4
2022-12-14T08:47:11.522Z,746.2
2022-12-14T08:48:13.477Z,746.9
2022-12-14T08:49:15.450Z,747.2
2022-12-14T08:50:17.950Z,747.1
2022-12-14T08:51:20.170Z,748
2022-12-14T08:52:22.648Z,747.8
2022-12-14T08:53:24.844Z,748.1
2022-12-14T08:54:27.363Z,747.9
2022-12-14T08:56:34.826Z,747.9
2022-12-14T08:57:37.045Z,747.9
2022-12-14T08:58:39.299Z,747.9
2022-12-14T09:00:46.866Z,748.2
2022-12-14T09:01:50.399Z,748.4
2022-12-14T09:02:53.692Z,748.4
2022-12-14T09:03:55.997Z,748.3
2022-12-14T09:04:58.219Z,748.1
2022-12-14T09:06:00.440Z,748.3
2022-12-14T09:07:02.380Z,748.4
2022-12-14T09:08:04.060Z,748.4
2022-12-14T09:10:12.294Z,748.7
2022-12-14T09:11:14.797Z,748.6
2022-12-14T09:12:17.042Z,748.6
2022-12-14T09:13:19.545Z,748.4
2022-12-14T09:14:21.755Z,748.8
2022-12-14T09:15:23.699Z,749.3
2022-12-14T09:16:26.263Z,749.8
2022-12-14T09:17:28.917Z,750.2
2022-12-14T09:18:34.527Z,750.5
2022-12-14T09:19:37.107Z,749.9
2022-12-14T09:20:39.320Z,749.8
2022-12-14T09:21:41.906Z,749.7
2022-12-14T09:22:44.440Z,749.2
2022-12-14T09:23:46.654Z,749.1
2022-12-14T09:24:48.596Z,749
2022-12-14T09:25:51.091Z,749
2022-12-14T09:26:53.574Z,749.1
2022-12-14T09:27:55.791Z,749.1
2022-12-14T09:28:58.064Z,748.9
2022-12-14T09:30:00.581Z,749
2022-12-14T09:31:02.768Z,748.9
2022-12-14T09:32:05.419Z,749.3
2022-12-14T09:33:07.651Z,749.3
2022-12-14T09:34:10.138Z,749.4
2022-12-14T09:35:12.327Z,749.8
2022-12-14T09:36:14.828Z,750.4
2022-12-14T09:37:17.067Z,750.4
2022-12-14T09:38:19.283Z,751.4
2022-12-14T09:39:21.210Z,751
2022-12-14T09:40:23.714Z,751.4
2022-12-14T09:41:25.949Z,751.4
2022-12-14T09:42:28.254Z,751.3
2022-12-14T09:44:37.959Z,751.5
2022-12-14T09:45:41.079Z,752.2
2022-12-14T09:46:43.589Z,752
2022-12-14T09:47:45.799Z,751.8
2022-12-14T09:48:48.310Z,751.8
2022-12-14T09:49:50.603Z,752.6
2022-12-14T09:50:53.188Z,753
2022-12-14T09:51:55.796Z,753.2
2022-12-14T09:52:58.281Z,753.4
2022-12-14T09:55:05.452Z,754.5
2022-12-14T09:56:07.478Z,755.1
2022-12-14T09:57:09.708Z,755.3
2022-12-14T09:58:12.207Z,755.4
2022-12-14T09:59:14.406Z,754.7
2022-12-14T10:00:16.642Z,754.6
2022-12-14T10:01:19.801Z,754.3
2022-12-14T10:03:30.257Z,754.1
2022-12-14T10:04:32.760Z,755
2022-12-14T10:05:34.764Z,755.7
2022-12-14T10:06:36.148Z,755.9
2022-12-14T10:07:38.124Z,755.4
2022-12-14T10:08:40.596Z,756.1
2022-12-14T10:09:43.112Z,756.2
2022-12-14T10:10:45.627Z,756.2
2022-12-14T10:11:48.070Z,757
2022-12-14T10:12:50.341Z,756.9
2022-12-14T10:13:52.817Z,756.8
2022-12-14T10:14:55.352Z,756.7
2022-12-14T10:15:57.473Z,757.3
2022-12-14T10:16:59.904Z,757.7
2022-12-14T10:18:02.158Z,757.7
2022-12-14T10:19:07.340Z,758
2022-12-14T10:20:09.830Z,758.4
2022-12-14T10:21:12.079Z,757.9
2022-12-14T10:22:14.025Z,758.2
2022-12-14T10:24:21.493Z,759.1
2022-12-14T10:25:23.709Z,759.5
2022-12-14T10:26:25.917Z,759.5
2022-12-14T10:28:35.077Z,759.9
2022-12-14T10:29:37.330Z,760.4
2022-12-14T10:30:39.826Z,760.4
2022-12-14T10:31:41.935Z,760.5
2022-12-14T10:32:44.154Z,760.7
2022-12-14T10:33:46.368Z,760.9
2022-12-14T10:34:48.572Z,760.5
2022-12-14T10:35:51.089Z,760.4
2022-12-14T10:36:55.381Z,760.6
2022-12-14T10:37:57.617Z,760.5
2022-12-14T10:38:59.602Z,760.2
2022-12-14T10:41:07.339Z,760.1
2022-12-14T10:42:09.861Z,759.9
2022-12-14T10:43:12.364Z,759
2022-12-14T10:44:14.863Z,759.7
2022-12-14T10:46:22.459Z,760.4
2022-12-14T10:47:25.030Z,760.1
2022-12-14T10:48:28.742Z,759.7
2022-12-14T10:49:31.441Z,759.4
2022-12-14T10:50:33.668Z,759.4
2022-12-14T10:51:35.906Z,759.5
2022-12-14T10:52:38.128Z,758.9
2022-12-14T10:54:45.634Z,758.8
2022-12-14T10:55:47.841Z,758.9
2022-12-14T10:56:52.549Z,759.4
2022-12-14T10:57:55.078Z,759.6
2022-12-14T10:58:57.577Z,760.3
2022-12-14T11:01:05.171Z,760.1
2022-12-14T11:02:09.241Z,759.9
2022-12-14T11:03:12.050Z,760.7
2022-12-14T11:04:14.575Z,761
2022-12-14T11:05:16.723Z,761.4
2022-12-14T11:06:19.066Z,761.3
2022-12-14T11:07:21.263Z,761.5
2022-12-14T11:08:23.493Z,761.5
2022-12-14T11:09:25.977Z,760.8
2022-12-14T11:10:28.464Z,761.1
2022-12-14T11:11:30.732Z,760.9
2022-12-14T11:12:32.689Z,760.6
2022-12-14T11:13:35.163Z,760.9
2022-12-14T11:14:37.091Z,761.1
2022-12-14T11:15:39.334Z,761.8
2022-12-14T11:16:42.908Z,761.6
2022-12-14T11:17:46.199Z,763
2022-12-14T11:18:48.774Z,763.3
2022-12-14T11:19:51.278Z,763.1
2022-12-14T11:20:53.759Z,762.9
2022-12-14T11:21:55.973Z,762.4
2022-12-14T11:22:58.521Z,761.9
2022-12-14T11:24:01.016Z,761.6
2022-12-14T11:25:03.511Z,761.6
2022-12-14T11:26:06.034Z,762.2
2022-12-14T11:27:08.240Z,762.6
2022-12-14T11:28:10.722Z,762.1
2022-12-14T11:29:12.935Z,761.4
2022-12-14T11:30:15.030Z,761.7
2022-12-14T11:31:17.663Z,761.5
2022-12-14T11:32:19.908Z,762.4
2022-12-14T11:33:22.121Z,762.3
2022-12-14T11:34:24.622Z,762.8
2022-12-14T11:35:27.119Z,762.8
2022-12-14T11:36:29.331Z,762.7
2022-12-14T11:37:31.824Z,762.8
2022-12-14T11:38:34.912Z,763.4
2022-12-14T11:39:37.587Z,763.7
2022-12-14T11:40:39.794Z,764.4
2022-12-14T11:41:42.287Z,764.4
2022-12-14T11:42:44.520Z,764.5
2022-12-14T11:43:46.995Z,765.1
2022-12-14T11:44:49.232Z,765.2
2022-12-14T11:45:52.064Z,765.7
2022-12-14T11:46:54.755Z,765.6
2022-12-14T11:47:57.024Z,765.2
2022-12-14T11:48:59.522Z,764.9
2022-12-14T11:50:01.714Z,764.9
2022-12-14T11:51:03.651Z,764.2
2022-12-14T11:52:05.888Z,764.4
2022-12-14T11:54:13.089Z,764.4
2022-12-14T11:55:16.199Z,764.2
2022-12-14T11:56:22.567Z,764.6
2022-12-14T11:57:25.080Z,763.7
2022-12-14T11:58:28.514Z,763.8
2022-12-14T11:59:30.723Z,763.3
2022-12-14T12:00:32.928Z,763
2022-12-14T12:01:35.894Z,762.8
2022-12-14T12:02:38.660Z,762.6
2022-12-14T12:03:41.677Z,763
2022-12-14T12:04:44.122Z,762.1
2022-12-14T12:05:45.772Z,762
2022-12-14T12:06:47.699Z,762.4
2022-12-14T12:07:49.934Z,763.1
2022-12-14T12:08:52.229Z,763.3
2022-12-14T12:09:54.217Z,762.8
2022-12-14T12:12:03.034Z,764.5
2022-12-14T12:13:05.270Z,764.7
2022-12-14T12:14:07.517Z,765.3
2022-12-14T12:15:09.748Z,765.8
2022-12-14T12:16:12.111Z,765.9
2022-12-14T12:17:14.384Z,765.7
2022-12-14T12:18:16.305Z,765.9
2022-12-14T12:19:18.541Z,765.4
2022-12-14T12:20:20.751Z,765.6
2022-12-14T12:21:22.958Z,765.4
2022-12-14T12:22:25.454Z,765
2022-12-14T12:23:29.917Z,764.8
2022-12-14T12:24:32.659Z,764.7
2022-12-14T12:26:40.120Z,765.6
2022-12-14T12:27:42.628Z,765.4
2022-12-14T12:28:44.851Z,765.9
2022-12-14T12:29:46.825Z,765.7
2022-12-14T12:30:49.435Z,765.8
2022-12-14T12:31:51.675Z,765.8
2022-12-14T12:32:54.176Z,765.3
2022-12-14T12:33:56.668Z,765.7
2022-12-14T12:36:04.819Z,765.6
2022-12-14T12:38:11.716Z,766.2
2022-12-14T12:39:14.221Z,765.9
2022-12-14T12:40:16.329Z,765.8
2022-12-14T12:41:18.827Z,766.3
2022-12-14T12:42:21.329Z,766.8
2022-12-14T12:43:23.581Z,766.4
2022-12-14T12:44:26.063Z,766.3
2022-12-14T12:45:28.582Z,766.4
2022-12-14T12:46:31.129Z,766.2
2022-12-14T12:48:38.356Z,767.1
2022-12-14T12:49:40.578Z,767.7
2022-12-14T12:50:43.122Z,766
2022-12-14T12:51:49.795Z,765.1
2022-12-14T12:52:51.719Z,766.2
2022-12-14T12:53:53.913Z,767.1
2022-12-14T12:54:55.857Z,767.5
2022-12-14T12:55:58.069Z,767.4
2022-12-14T12:56:59.738Z,766.9
2022-12-14T12:58:02.270Z,766.8
2022-12-14T12:59:04.480Z,766
2022-12-14T13:00:06.051Z,765.6
2022-12-14T13:01:08.325Z,766.1
2022-12-14T13:02:11.310Z,765.7
2022-12-14T13:03:14.258Z,765.4
2022-12-14T13:04:16.808Z,765.2
2022-12-14T13:06:24.275Z,764.7
2022-12-14T13:07:26.810Z,764.5
2022-12-14T13:08:32.028Z,764.6
2022-12-14T13:09:34.783Z,763.7
2022-12-14T13:11:43.062Z,763.7
2022-12-14T13:13:50.551Z,763.3
2022-12-14T13:14:52.758Z,763.6
2022-12-14T13:15:55.347Z,763.3
2022-12-14T13:16:57.054Z,762.9
2022-12-14T13:17:59.535Z,762.9
2022-12-14T13:20:06.715Z,761.9
2022-12-14T13:21:08.668Z,762
2022-12-14T13:24:21.147Z,762
2022-12-14T13:25:23.674Z,762.3
2022-12-14T13:27:31.145Z,762.3
2022-12-14T13:28:34.650Z,762.2
2022-12-14T13:29:37.152Z,761.6
2022-12-14T13:30:39.678Z,761.5
2022-12-14T13:31:42.536Z,761.2
2022-12-14T13:32:44.238Z,760.9
2022-12-14T13:34:52.289Z,760.4
2022-12-14T13:35:54.511Z,760
2022-12-14T13:36:56.464Z,759.7
2022-12-14T13:37:58.967Z,759.4
2022-12-14T13:39:00.914Z,759.5
2022-12-14T13:40:03.208Z,760.2
2022-12-14T13:41:05.426Z,760.4
2022-12-14T13:42:07.654Z,760.3
2022-12-14T13:43:09.873Z,760.6
2022-12-14T13:44:12.081Z,760.8
2022-12-14T13:45:14.609Z,759.7
2022-12-14T13:46:17.357Z,760.5
2022-12-14T13:47:19.856Z,760.4
2022-12-14T13:48:22.367Z,761
2022-12-14T13:49:24.640Z,761
2022-12-14T13:51:31.849Z,761.2
2022-12-14T13:52:34.355Z,760.8
2022-12-14T13:53:36.997Z,760.6
2022-12-14T13:54:39.066Z,760.4
2022-12-14T13:55:41.286Z,760.1
2022-12-14T13:56:43.540Z,760.3
2022-12-14T13:58:52.635Z,759.6
2022-12-14T13:59:54.675Z,759.8
2022-12-14T14:00:57.189Z,759.9
2022-12-14T14:02:00.262Z,760.6
2022-12-14T14:03:03.422Z,760.8
2022-12-14T14:04:06.406Z,761.3
2022-12-14T14:05:08.961Z,761.6
2022-12-14T14:06:10.928Z,760.6
2022-12-14T14:07:13.410Z,760.8
2022-12-14T14:08:15.919Z,760.3
2022-12-14T14:09:18.620Z,760.5
2022-12-14T14:10:21.131Z,760.5
2022-12-14T14:12:28.630Z,760.9
2022-12-14T14:13:31.139Z,760.8
2022-12-14T14:14:33.396Z,760.9
2022-12-14T14:15:35.911Z,759.9
2022-12-14T14:16:38.242Z,758.5
2022-12-14T14:17:40.194Z,759
2022-12-14T14:18:42.431Z,760.4
2022-12-14T14:23:02.033Z,762.4
2022-12-14T14:24:04.541Z,762.3
2022-12-14T14:26:12.669Z,762.5
2022-12-14T14:27:15.050Z,762.4
2022-12-14T14:29:22.589Z,761.8
2022-12-14T14:30:25.011Z,761.9
2022-12-14T14:31:27.747Z,761.9
2022-12-14T14:32:30.046Z,761.3
2022-12-14T14:34:36.989Z,760.9
2022-12-14T14:35:39.216Z,761.5
2022-12-14T14:36:41.718Z,761.7
2022-12-14T14:38:52.116Z,762